sensor_id;sensor_type;location;lat;lon;timestamp;temperature;humidity
24402;DHT22;12539;48.808;11.292;2023-05-25T00:00:13;12.40;73.10
24402;DHT22;12539;48.808;11.292;2023-05-25T00:02:40;12.40;73.50
24402;DHT22;12539;48.808;11.292;2023-05-25T00:05:07;12.40;73.40
24402;DHT22;12539;48.808;11.292;2023-05-25T00:07:33;12.30;73.10
24402;DHT22;12539;48.808;11.292;2023-05-25T00:09:58;12.20;73.80
24402;DHT22;12539;48.808;11.292;2023-05-25T00:12:24;12.30;74.30
24402;DHT22;12539;48.808;11.292;2023-05-25T00:14:50;12.30;75.00
24402;DHT22;12539;48.808;11.292;2023-05-25T00:17:15;12.30;73.90
24402;DHT22;12539;48.808;11.292;2023-05-25T00:19:43;12.30;74.50
24402;DHT22;12539;48.808;11.292;2023-05-25T00:22:09;12.40;74.30
24402;DHT22;12539;48.808;11.292;2023-05-25T00:24:35;12.40;73.30
24402;DHT22;12539;48.808;11.292;2023-05-25T00:27:01;12.40;73.40
24402;DHT22;12539;48.808;11.292;2023-05-25T00:29:27;12.40;73.50
24402;DHT22;12539;48.808;11.292;2023-05-25T00:31:53;12.40;73.80
24402;DHT22;12539;48.808;11.292;2023-05-25T00:34:18;12.40;73.70
24402;DHT22;12539;48.808;11.292;2023-05-25T00:36:44;12.50;73.80
24402;DHT22;12539;48.808;11.292;2023-05-25T00:39:16;12.50;73.40
24402;DHT22;12539;48.808;11.292;2023-05-25T00:41:46;12.50;74.00
24402;DHT22;12539;48.808;11.292;2023-05-25T00:44:12;12.50;74.00
24402;DHT22;12539;48.808;11.292;2023-05-25T00:46:46;12.40;73.60
24402;DHT22;12539;48.808;11.292;2023-05-25T00:49:13;12.40;74.30
24402;DHT22;12539;48.808;11.292;2023-05-25T00:51:39;12.40;74.20
24402;DHT22;12539;48.808;11.292;2023-05-25T00:54:05;12.50;74.40
24402;DHT22;12539;48.808;11.292;2023-05-25T00:56:31;12.50;74.70
24402;DHT22;12539;48.808;11.292;2023-05-25T00:58:59;12.50;74.90
24402;DHT22;12539;48.808;11.292;2023-05-25T01:01:25;12.50;74.80
24402;DHT22;12539;48.808;11.292;2023-05-25T01:03:51;12.60;75.30
24402;DHT22;12539;48.808;11.292;2023-05-25T01:06:19;12.60;75.40
24402;DHT22;12539;48.808;11.292;2023-05-25T01:08:46;12.70;75.40
24402;DHT22;12539;48.808;11.292;2023-05-25T01:11:13;12.70;74.90
24402;DHT22;12539;48.808;11.292;2023-05-25T01:13:39;12.70;74.90
24402;DHT22;12539;48.808;11.292;2023-05-25T01:16:06;12.70;74.70
24402;DHT22;12539;48.808;11.292;2023-05-25T01:18:32;12.70;74.70
24402;DHT22;12539;48.808;11.292;2023-05-25T01:21:18;12.60;74.80
24402;DHT22;12539;48.808;11.292;2023-05-25T01:24:01;12.60;75.10
24402;DHT22;12539;48.808;11.292;2023-05-25T01:26:28;12.60;75.30
24402;DHT22;12539;48.808;11.292;2023-05-25T01:28:55;12.60;75.70
24402;DHT22;12539;48.808;11.292;2023-05-25T01:31:22;12.60;76.00
24402;DHT22;12539;48.808;11.292;2023-05-25T01:33:51;12.60;75.90
24402;DHT22;12539;48.808;11.292;2023-05-25T01:36:18;12.60;76.20
24402;DHT22;12539;48.808;11.292;2023-05-25T01:38:44;12.70;75.90
24402;DHT22;12539;48.808;11.292;2023-05-25T01:41:09;12.70;76.60
24402;DHT22;12539;48.808;11.292;2023-05-25T01:43:35;12.80;76.90
24402;DHT22;12539;48.808;11.292;2023-05-25T01:46:43;12.80;76.80
24402;DHT22;12539;48.808;11.292;2023-05-25T01:51:20;12.90;76.40
24402;DHT22;12539;48.808;11.292;2023-05-25T01:53:53;12.90;76.40
24402;DHT22;12539;48.808;11.292;2023-05-25T01:56:20;12.90;76.80
24402;DHT22;12539;48.808;11.292;2023-05-25T01:58:45;13.00;76.60
24402;DHT22;12539;48.808;11.292;2023-05-25T02:01:13;12.90;76.80
24402;DHT22;12539;48.808;11.292;2023-05-25T02:03:39;13.00;77.00
24402;DHT22;12539;48.808;11.292;2023-05-25T02:06:05;13.00;76.90
24402;DHT22;12539;48.808;11.292;2023-05-25T02:08:31;13.00;76.40
24402;DHT22;12539;48.808;11.292;2023-05-25T02:10:57;13.00;76.30
24402;DHT22;12539;48.808;11.292;2023-05-25T02:13:22;13.00;76.00
24402;DHT22;12539;48.808;11.292;2023-05-25T02:15:48;13.10;76.40
24402;DHT22;12539;48.808;11.292;2023-05-25T02:18:13;13.00;75.70
24402;DHT22;12539;48.808;11.292;2023-05-25T02:20:42;13.00;76.60
24402;DHT22;12539;48.808;11.292;2023-05-25T02:23:08;13.00;76.50
24402;DHT22;12539;48.808;11.292;2023-05-25T02:25:33;13.10;76.40
24402;DHT22;12539;48.808;11.292;2023-05-25T02:27:59;13.00;75.10
24402;DHT22;12539;48.808;11.292;2023-05-25T02:30:26;12.90;76.00
24402;DHT22;12539;48.808;11.292;2023-05-25T02:32:51;12.90;76.50
24402;DHT22;12539;48.808;11.292;2023-05-25T02:35:18;12.90;76.40
24402;DHT22;12539;48.808;11.292;2023-05-25T02:37:43;12.90;76.20
24402;DHT22;12539;48.808;11.292;2023-05-25T02:40:10;12.90;76.00
24402;DHT22;12539;48.808;11.292;2023-05-25T02:42:35;12.90;76.50
24402;DHT22;12539;48.808;11.292;2023-05-25T02:45:01;12.90;76.80
24402;DHT22;12539;48.808;11.292;2023-05-25T02:47:26;12.90;77.00
24402;DHT22;12539;48.808;11.292;2023-05-25T02:49:52;12.90;77.40
24402;DHT22;12539;48.808;11.292;2023-05-25T02:52:17;13.00;77.50
24402;DHT22;12539;48.808;11.292;2023-05-25T02:54:43;13.10;77.10
24402;DHT22;12539;48.808;11.292;2023-05-25T02:57:08;13.10;77.10
24402;DHT22;12539;48.808;11.292;2023-05-25T02:59:34;13.20;76.50
24402;DHT22;12539;48.808;11.292;2023-05-25T03:02:00;13.20;76.60
24402;DHT22;12539;48.808;11.292;2023-05-25T03:04:25;13.20;76.40
24402;DHT22;12539;48.808;11.292;2023-05-25T03:06:51;13.20;76.00
24402;DHT22;12539;48.808;11.292;2023-05-25T03:09:17;13.10;76.60
24402;DHT22;12539;48.808;11.292;2023-05-25T03:11:42;13.10;76.90
24402;DHT22;12539;48.808;11.292;2023-05-25T03:14:08;13.10;76.90
24402;DHT22;12539;48.808;11.292;2023-05-25T03:16:34;13.10;77.00
24402;DHT22;12539;48.808;11.292;2023-05-25T03:19:03;13.10;76.60
24402;DHT22;12539;48.808;11.292;2023-05-25T03:21:30;13.00;76.80
24402;DHT22;12539;48.808;11.292;2023-05-25T03:23:55;13.00;77.70
24402;DHT22;12539;48.808;11.292;2023-05-25T03:26:23;13.00;77.30
24402;DHT22;12539;48.808;11.292;2023-05-25T03:28:50;13.10;76.90
24402;DHT22;12539;48.808;11.292;2023-05-25T03:31:16;13.10;76.30
24402;DHT22;12539;48.808;11.292;2023-05-25T03:33:42;13.10;77.00
24402;DHT22;12539;48.808;11.292;2023-05-25T03:36:08;13.00;76.40
24402;DHT22;12539;48.808;11.292;2023-05-25T03:38:35;13.00;76.40
24402;DHT22;12539;48.808;11.292;2023-05-25T03:41:00;13.00;77.30
24402;DHT22;12539;48.808;11.292;2023-05-25T03:43:26;13.00;77.30
24402;DHT22;12539;48.808;11.292;2023-05-25T03:45:51;13.10;77.90
24402;DHT22;12539;48.808;11.292;2023-05-25T03:48:17;13.10;77.70
24402;DHT22;12539;48.808;11.292;2023-05-25T03:50:42;13.10;77.40
24402;DHT22;12539;48.808;11.292;2023-05-25T03:53:08;13.20;77.90
24402;DHT22;12539;48.808;11.292;2023-05-25T03:55:33;13.20;78.00
24402;DHT22;12539;48.808;11.292;2023-05-25T03:57:59;13.30;77.50
24402;DHT22;12539;48.808;11.292;2023-05-25T04:00:24;13.30;76.50
24402;DHT22;12539;48.808;11.292;2023-05-25T04:02:50;13.30;76.90
24402;DHT22;12539;48.808;11.292;2023-05-25T04:05:16;13.30;77.30
24402;DHT22;12539;48.808;11.292;2023-05-25T04:07:41;13.30;76.90
24402;DHT22;12539;48.808;11.292;2023-05-25T04:10:07;13.40;77.40
24402;DHT22;12539;48.808;11.292;2023-05-25T04:12:33;13.40;76.90
24402;DHT22;12539;48.808;11.292;2023-05-25T04:14:58;13.50;76.60
24402;DHT22;12539;48.808;11.292;2023-05-25T04:17:24;13.50;76.90
24402;DHT22;12539;48.808;11.292;2023-05-25T04:19:50;13.50;76.60
24402;DHT22;12539;48.808;11.292;2023-05-25T04:22:16;13.50;76.70
24402;DHT22;12539;48.808;11.292;2023-05-25T04:24:42;13.60;76.10
24402;DHT22;12539;48.808;11.292;2023-05-25T04:27:07;13.60;76.20
24402;DHT22;12539;48.808;11.292;2023-05-25T04:29:33;13.60;75.90
24402;DHT22;12539;48.808;11.292;2023-05-25T04:31:58;13.60;76.30
24402;DHT22;12539;48.808;11.292;2023-05-25T04:34:25;13.60;76.50
24402;DHT22;12539;48.808;11.292;2023-05-25T04:36:51;13.60;76.40
24402;DHT22;12539;48.808;11.292;2023-05-25T04:39:17;13.70;76.00
24402;DHT22;12539;48.808;11.292;2023-05-25T04:41:43;13.70;76.00
24402;DHT22;12539;48.808;11.292;2023-05-25T04:44:09;13.80;75.90
24402;DHT22;12539;48.808;11.292;2023-05-25T04:46:35;13.80;75.70
24402;DHT22;12539;48.808;11.292;2023-05-25T04:49:03;13.90;75.90
24402;DHT22;12539;48.808;11.292;2023-05-25T04:51:35;13.90;75.60
24402;DHT22;12539;48.808;11.292;2023-05-25T04:54:01;14.00;75.90
24402;DHT22;12539;48.808;11.292;2023-05-25T04:56:27;14.00;75.50
24402;DHT22;12539;48.808;11.292;2023-05-25T04:58:52;14.10;75.60
24402;DHT22;12539;48.808;11.292;2023-05-25T05:01:18;14.10;75.60
24402;DHT22;12539;48.808;11.292;2023-05-25T05:03:44;14.10;75.60
24402;DHT22;12539;48.808;11.292;2023-05-25T05:06:10;14.20;75.60
24402;DHT22;12539;48.808;11.292;2023-05-25T05:08:36;14.30;75.80
24402;DHT22;12539;48.808;11.292;2023-05-25T05:11:01;14.30;75.10
24402;DHT22;12539;48.808;11.292;2023-05-25T05:13:27;14.40;75.40
24402;DHT22;12539;48.808;11.292;2023-05-25T05:15:52;14.50;75.40
24402;DHT22;12539;48.808;11.292;2023-05-25T05:18:18;14.70;75.40
24402;DHT22;12539;48.808;11.292;2023-05-25T05:20:44;14.70;75.40
24402;DHT22;12539;48.808;11.292;2023-05-25T05:23:10;14.90;75.40
24402;DHT22;12539;48.808;11.292;2023-05-25T05:25:35;15.00;75.50
24402;DHT22;12539;48.808;11.292;2023-05-25T05:28:02;15.10;75.40
24402;DHT22;12539;48.808;11.292;2023-05-25T05:30:28;15.30;75.10
24402;DHT22;12539;48.808;11.292;2023-05-25T05:32:53;15.40;73.90
24402;DHT22;12539;48.808;11.292;2023-05-25T05:38:22;15.60;72.80
24402;DHT22;12539;48.808;11.292;2023-05-25T05:40:47;15.70;72.10
24402;DHT22;12539;48.808;11.292;2023-05-25T05:43:13;15.90;71.00
24402;DHT22;12539;48.808;11.292;2023-05-25T05:45:39;16.00;71.20
24402;DHT22;12539;48.808;11.292;2023-05-25T05:48:05;16.10;71.10
24402;DHT22;12539;48.808;11.292;2023-05-25T05:53:37;16.00;70.40
24402;DHT22;12539;48.808;11.292;2023-05-25T05:56:02;15.90;70.60
24402;DHT22;12539;48.808;11.292;2023-05-25T05:58:28;15.80;70.70
24402;DHT22;12539;48.808;11.292;2023-05-25T06:00:56;15.80;71.20
24402;DHT22;12539;48.808;11.292;2023-05-25T06:03:24;15.70;71.30
24402;DHT22;12539;48.808;11.292;2023-05-25T06:05:51;15.60;71.90
24402;DHT22;12539;48.808;11.292;2023-05-25T06:08:17;15.50;72.60
24402;DHT22;12539;48.808;11.292;2023-05-25T06:10:43;15.50;72.30
24402;DHT22;12539;48.808;11.292;2023-05-25T06:13:08;15.50;73.00
24402;DHT22;12539;48.808;11.292;2023-05-25T06:15:34;15.60;73.00
24402;DHT22;12539;48.808;11.292;2023-05-25T06:18:00;15.50;72.90
24402;DHT22;12539;48.808;11.292;2023-05-25T06:20:26;15.60;73.00
24402;DHT22;12539;48.808;11.292;2023-05-25T06:22:52;15.70;73.30
24402;DHT22;12539;48.808;11.292;2023-05-25T06:25:18;15.70;72.50
24402;DHT22;12539;48.808;11.292;2023-05-25T06:27:44;15.70;72.20
24402;DHT22;12539;48.808;11.292;2023-05-25T06:30:11;15.80;72.00
24402;DHT22;12539;48.808;11.292;2023-05-25T06:32:37;15.80;72.40
24402;DHT22;12539;48.808;11.292;2023-05-25T06:35:03;15.90;72.00
24402;DHT22;12539;48.808;11.292;2023-05-25T06:37:29;16.00;71.50
24402;DHT22;12539;48.808;11.292;2023-05-25T06:40:00;16.20;71.50
24402;DHT22;12539;48.808;11.292;2023-05-25T06:42:26;16.60;71.10
24402;DHT22;12539;48.808;11.292;2023-05-25T06:44:52;17.00;70.50
24402;DHT22;12539;48.808;11.292;2023-05-25T06:47:17;17.80;69.60
24402;DHT22;12539;48.808;11.292;2023-05-25T06:49:43;19.40;66.70
24402;DHT22;12539;48.808;11.292;2023-05-25T06:52:08;21.40;61.60
24402;DHT22;12539;48.808;11.292;2023-05-25T06:54:34;23.10;56.50
24402;DHT22;12539;48.808;11.292;2023-05-25T06:56:59;24.30;53.40
24402;DHT22;12539;48.808;11.292;2023-05-25T06:59:25;25.40;51.10
24402;DHT22;12539;48.808;11.292;2023-05-25T07:01:51;26.00;47.30
24402;DHT22;12539;48.808;11.292;2023-05-25T07:04:16;25.90;47.20
24402;DHT22;12539;48.808;11.292;2023-05-25T07:06:42;25.20;47.60
24402;DHT22;12539;48.808;11.292;2023-05-25T07:09:08;24.10;49.40
24402;DHT22;12539;48.808;11.292;2023-05-25T07:11:33;23.10;51.60
24402;DHT22;12539;48.808;11.292;2023-05-25T07:13:59;22.40;53.00
24402;DHT22;12539;48.808;11.292;2023-05-25T07:16:25;22.20;53.20
24402;DHT22;12539;48.808;11.292;2023-05-25T07:18:50;22.70;52.70
24402;DHT22;12539;48.808;11.292;2023-05-25T07:21:16;23.30;51.50
24402;DHT22;12539;48.808;11.292;2023-05-25T07:23:41;23.10;51.40
24402;DHT22;12539;48.808;11.292;2023-05-25T07:26:07;22.50;52.20
24402;DHT22;12539;48.808;11.292;2023-05-25T07:28:33;21.80;53.30
24402;DHT22;12539;48.808;11.292;2023-05-25T07:30:58;21.20;54.50
24402;DHT22;12539;48.808;11.292;2023-05-25T07:33:24;20.70;56.10
24402;DHT22;12539;48.808;11.292;2023-05-25T07:35:49;20.40;56.80
24402;DHT22;12539;48.808;11.292;2023-05-25T07:38:16;20.20;56.50
24402;DHT22;12539;48.808;11.292;2023-05-25T07:40:41;19.90;57.20
24402;DHT22;12539;48.808;11.292;2023-05-25T07:43:08;19.80;58.10
24402;DHT22;12539;48.808;11.292;2023-05-25T07:45:34;19.80;58.70
24402;DHT22;12539;48.808;11.292;2023-05-25T07:47:59;19.80;58.80
24402;DHT22;12539;48.808;11.292;2023-05-25T07:50:25;19.70;58.50
24402;DHT22;12539;48.808;11.292;2023-05-25T07:52:51;19.70;58.80
24402;DHT22;12539;48.808;11.292;2023-05-25T07:55:16;19.70;59.20
24402;DHT22;12539;48.808;11.292;2023-05-25T07:57:43;19.70;59.60
24402;DHT22;12539;48.808;11.292;2023-05-25T08:00:09;19.80;59.30
24402;DHT22;12539;48.808;11.292;2023-05-25T08:02:35;19.70;59.00
24402;DHT22;12539;48.808;11.292;2023-05-25T08:05:01;19.70;59.50
24402;DHT22;12539;48.808;11.292;2023-05-25T08:07:30;19.70;59.30
24402;DHT22;12539;48.808;11.292;2023-05-25T08:09:56;19.70;59.20
24402;DHT22;12539;48.808;11.292;2023-05-25T08:12:22;19.60;59.50
24402;DHT22;12539;48.808;11.292;2023-05-25T08:14:47;19.60;60.20
24402;DHT22;12539;48.808;11.292;2023-05-25T08:17:13;19.70;60.00
24402;DHT22;12539;48.808;11.292;2023-05-25T08:19:38;19.60;60.00
24402;DHT22;12539;48.808;11.292;2023-05-25T08:22:04;19.70;59.80
24402;DHT22;12539;48.808;11.292;2023-05-25T08:24:29;19.60;59.20
24402;DHT22;12539;48.808;11.292;2023-05-25T08:26:55;19.50;60.00
24402;DHT22;12539;48.808;11.292;2023-05-25T08:29:21;19.50;60.80
24402;DHT22;12539;48.808;11.292;2023-05-25T08:31:46;19.60;60.90
24402;DHT22;12539;48.808;11.292;2023-05-25T08:34:14;19.60;61.20
24402;DHT22;12539;48.808;11.292;2023-05-25T08:36:39;19.70;60.50
24402;DHT22;12539;48.808;11.292;2023-05-25T08:39:05;19.70;60.50
24402;DHT22;12539;48.808;11.292;2023-05-25T08:41:33;19.70;60.10
24402;DHT22;12539;48.808;11.292;2023-05-25T08:44:00;19.70;60.20
24402;DHT22;12539;48.808;11.292;2023-05-25T08:46:30;19.80;60.00
24402;DHT22;12539;48.808;11.292;2023-05-25T08:51:35;19.80;60.00
24402;DHT22;12539;48.808;11.292;2023-05-25T08:54:06;19.80;60.10
24402;DHT22;12539;48.808;11.292;2023-05-25T08:56:32;19.80;60.10
24402;DHT22;12539;48.808;11.292;2023-05-25T08:59:05;19.80;59.70
24402;DHT22;12539;48.808;11.292;2023-05-25T09:01:35;19.80;60.30
24402;DHT22;12539;48.808;11.292;2023-05-25T09:04:02;19.80;60.10
24402;DHT22;12539;48.808;11.292;2023-05-25T09:06:28;19.90;59.90
24402;DHT22;12539;48.808;11.292;2023-05-25T09:08:54;19.90;59.10
24402;DHT22;12539;48.808;11.292;2023-05-25T09:11:19;19.80;59.60
24402;DHT22;12539;48.808;11.292;2023-05-25T09:13:46;19.80;60.10
24402;DHT22;12539;48.808;11.292;2023-05-25T09:16:12;19.80;60.60
24402;DHT22;12539;48.808;11.292;2023-05-25T09:18:37;19.90;61.00
24402;DHT22;12539;48.808;11.292;2023-05-25T09:21:04;20.00;60.50
24402;DHT22;12539;48.808;11.292;2023-05-25T09:23:30;20.00;60.70
24402;DHT22;12539;48.808;11.292;2023-05-25T09:25:56;20.00;61.20
24402;DHT22;12539;48.808;11.292;2023-05-25T09:28:21;20.00;61.10
24402;DHT22;12539;48.808;11.292;2023-05-25T09:33:17;20.00;60.00
24402;DHT22;12539;48.808;11.292;2023-05-25T09:35:43;20.00;60.00
24402;DHT22;12539;48.808;11.292;2023-05-25T09:38:08;20.10;60.40
24402;DHT22;12539;48.808;11.292;2023-05-25T09:40:34;20.20;60.00
24402;DHT22;12539;48.808;11.292;2023-05-25T09:43:03;20.10;60.20
24402;DHT22;12539;48.808;11.292;2023-05-25T09:45:29;20.10;60.40
24402;DHT22;12539;48.808;11.292;2023-05-25T09:47:56;20.20;60.00
24402;DHT22;12539;48.808;11.292;2023-05-25T09:50:21;20.20;60.00
24402;DHT22;12539;48.808;11.292;2023-05-25T09:52:47;20.20;59.90
24402;DHT22;12539;48.808;11.292;2023-05-25T09:55:13;20.20;60.30
24402;DHT22;12539;48.808;11.292;2023-05-25T09:57:39;20.30;60.00
24402;DHT22;12539;48.808;11.292;2023-05-25T10:00:05;20.30;59.60
24402;DHT22;12539;48.808;11.292;2023-05-25T10:02:32;20.30;60.30
24402;DHT22;12539;48.808;11.292;2023-05-25T10:04:58;20.30;60.30
24402;DHT22;12539;48.808;11.292;2023-05-25T10:07:24;20.30;60.90
24402;DHT22;12539;48.808;11.292;2023-05-25T10:09:50;20.30;60.90
24402;DHT22;12539;48.808;11.292;2023-05-25T10:12:18;20.30;61.20
24402;DHT22;12539;48.808;11.292;2023-05-25T10:14:44;20.40;61.40
24402;DHT22;12539;48.808;11.292;2023-05-25T10:17:10;20.40;61.50
24402;DHT22;12539;48.808;11.292;2023-05-25T10:19:37;20.50;61.90
24402;DHT22;12539;48.808;11.292;2023-05-25T10:24:56;20.60;61.50
24402;DHT22;12539;48.808;11.292;2023-05-25T10:27:24;20.60;61.40
24402;DHT22;12539;48.808;11.292;2023-05-25T10:29:54;20.60;61.10
24402;DHT22;12539;48.808;11.292;2023-05-25T10:32:20;20.60;61.00
24402;DHT22;12539;48.808;11.292;2023-05-25T10:34:46;20.70;61.10
24402;DHT22;12539;48.808;11.292;2023-05-25T10:37:13;20.80;60.60
24402;DHT22;12539;48.808;11.292;2023-05-25T10:39:40;20.80;60.80
24402;DHT22;12539;48.808;11.292;2023-05-25T10:42:05;20.80;60.20
24402;DHT22;12539;48.808;11.292;2023-05-25T10:44:31;20.90;60.50
24402;DHT22;12539;48.808;11.292;2023-05-25T10:47:00;20.90;60.40
24402;DHT22;12539;48.808;11.292;2023-05-25T10:49:32;21.00;60.00
24402;DHT22;12539;48.808;11.292;2023-05-25T10:51:58;21.10;60.10
24402;DHT22;12539;48.808;11.292;2023-05-25T10:54:27;21.10;59.90
24402;DHT22;12539;48.808;11.292;2023-05-25T10:59:41;21.10;58.90
24402;DHT22;12539;48.808;11.292;2023-05-25T11:02:09;21.20;57.90
24402;DHT22;12539;48.808;11.292;2023-05-25T11:04:35;21.20;58.50
24402;DHT22;12539;48.808;11.292;2023-05-25T11:07:04;21.20;58.10
24402;DHT22;12539;48.808;11.292;2023-05-25T11:09:32;21.20;58.20
24402;DHT22;12539;48.808;11.292;2023-05-25T11:12:00;21.20;58.30
24402;DHT22;12539;48.808;11.292;2023-05-25T11:14:31;21.20;58.70
24402;DHT22;12539;48.808;11.292;2023-05-25T11:22:13;21.30;58.10
24402;DHT22;12539;48.808;11.292;2023-05-25T11:24:43;21.30;58.10
24402;DHT22;12539;48.808;11.292;2023-05-25T11:27:12;21.30;58.20
24402;DHT22;12539;48.808;11.292;2023-05-25T11:29:38;21.30;57.90
24402;DHT22;12539;48.808;11.292;2023-05-25T11:32:04;21.30;56.70
24402;DHT22;12539;48.808;11.292;2023-05-25T11:34:30;21.20;56.90
24402;DHT22;12539;48.808;11.292;2023-05-25T11:36:58;21.20;57.30
24402;DHT22;12539;48.808;11.292;2023-05-25T11:39:28;21.20;57.60
24402;DHT22;12539;48.808;11.292;2023-05-25T11:41:54;21.20;57.80
24402;DHT22;12539;48.808;11.292;2023-05-25T11:44:33;21.20;57.80
24402;DHT22;12539;48.808;11.292;2023-05-25T11:47:04;21.20;57.60
24402;DHT22;12539;48.808;11.292;2023-05-25T11:49:33;21.20;57.30
24402;DHT22;12539;48.808;11.292;2023-05-25T11:51:58;21.20;57.70
24402;DHT22;12539;48.808;11.292;2023-05-25T11:54:28;21.30;57.50
24402;DHT22;12539;48.808;11.292;2023-05-25T11:56:54;21.30;56.90
24402;DHT22;12539;48.808;11.292;2023-05-25T11:59:26;21.30;57.50
24402;DHT22;12539;48.808;11.292;2023-05-25T12:02:02;21.30;57.80
24402;DHT22;12539;48.808;11.292;2023-05-25T12:04:28;21.40;57.70
24402;DHT22;12539;48.808;11.292;2023-05-25T12:07:00;21.40;57.50
24402;DHT22;12539;48.808;11.292;2023-05-25T12:09:26;21.40;57.40
24402;DHT22;12539;48.808;11.292;2023-05-25T12:11:51;21.40;57.50
24402;DHT22;12539;48.808;11.292;2023-05-25T12:14:17;21.40;57.60
24402;DHT22;12539;48.808;11.292;2023-05-25T12:16:43;21.50;57.60
24402;DHT22;12539;48.808;11.292;2023-05-25T12:19:09;21.50;57.00
24402;DHT22;12539;48.808;11.292;2023-05-25T12:21:36;21.50;57.50
24402;DHT22;12539;48.808;11.292;2023-05-25T12:24:02;21.50;57.20
24402;DHT22;12539;48.808;11.292;2023-05-25T12:26:30;21.50;56.90
24402;DHT22;12539;48.808;11.292;2023-05-25T12:28:58;21.50;57.10
24402;DHT22;12539;48.808;11.292;2023-05-25T12:31:24;21.50;57.20
24402;DHT22;12539;48.808;11.292;2023-05-25T12:34:04;21.50;57.30
24402;DHT22;12539;48.808;11.292;2023-05-25T12:39:01;21.50;57.10
24402;DHT22;12539;48.808;11.292;2023-05-25T12:41:27;21.60;57.20
24402;DHT22;12539;48.808;11.292;2023-05-25T12:43:52;21.60;56.90
24402;DHT22;12539;48.808;11.292;2023-05-25T12:46:24;21.60;57.30
24402;DHT22;12539;48.808;11.292;2023-05-25T12:48:50;21.70;57.10
24402;DHT22;12539;48.808;11.292;2023-05-25T12:51:16;21.70;56.50
24402;DHT22;12539;48.808;11.292;2023-05-25T12:53:51;21.70;55.80
24402;DHT22;12539;48.808;11.292;2023-05-25T12:56:16;21.70;56.40
24402;DHT22;12539;48.808;11.292;2023-05-25T12:58:42;21.70;56.30
24402;DHT22;12539;48.808;11.292;2023-05-25T13:01:07;21.70;55.70
24402;DHT22;12539;48.808;11.292;2023-05-25T13:03:33;21.70;55.70
24402;DHT22;12539;48.808;11.292;2023-05-25T13:06:00;21.70;56.00
24402;DHT22;12539;48.808;11.292;2023-05-25T13:08:26;21.70;55.60
24402;DHT22;12539;48.808;11.292;2023-05-25T13:10:52;21.80;56.10
24402;DHT22;12539;48.808;11.292;2023-05-25T13:13:17;21.90;56.30
24402;DHT22;12539;48.808;11.292;2023-05-25T13:15:43;21.90;55.50
24402;DHT22;12539;48.808;11.292;2023-05-25T13:18:08;21.90;55.20
24402;DHT22;12539;48.808;11.292;2023-05-25T13:20:34;21.80;55.20
24402;DHT22;12539;48.808;11.292;2023-05-25T13:23:01;21.80;55.10
24402;DHT22;12539;48.808;11.292;2023-05-25T13:25:27;21.80;55.20
24402;DHT22;12539;48.808;11.292;2023-05-25T13:27:54;21.80;55.50
24402;DHT22;12539;48.808;11.292;2023-05-25T13:30:22;21.90;54.90
24402;DHT22;12539;48.808;11.292;2023-05-25T13:32:47;21.90;55.40
24402;DHT22;12539;48.808;11.292;2023-05-25T13:35:13;21.90;55.00
24402;DHT22;12539;48.808;11.292;2023-05-25T13:37:57;22.00;55.40
24402;DHT22;12539;48.808;11.292;2023-05-25T13:40:23;22.00;54.90
24402;DHT22;12539;48.808;11.292;2023-05-25T13:42:49;22.00;54.40
24402;DHT22;12539;48.808;11.292;2023-05-25T13:45:14;22.00;54.80
24402;DHT22;12539;48.808;11.292;2023-05-25T13:47:40;22.10;55.50
24402;DHT22;12539;48.808;11.292;2023-05-25T13:50:08;22.00;54.70
24402;DHT22;12539;48.808;11.292;2023-05-25T13:52:33;22.00;54.70
24402;DHT22;12539;48.808;11.292;2023-05-25T13:55:01;22.10;55.00
24402;DHT22;12539;48.808;11.292;2023-05-25T13:57:26;22.10;54.30
24402;DHT22;12539;48.808;11.292;2023-05-25T13:59:52;22.10;53.70
24402;DHT22;12539;48.808;11.292;2023-05-25T14:02:17;22.10;53.70
24402;DHT22;12539;48.808;11.292;2023-05-25T14:04:43;22.10;53.80
24402;DHT22;12539;48.808;11.292;2023-05-25T14:07:08;22.10;53.80
24402;DHT22;12539;48.808;11.292;2023-05-25T14:09:34;22.10;53.80
24402;DHT22;12539;48.808;11.292;2023-05-25T14:11:59;22.10;52.90
24402;DHT22;12539;48.808;11.292;2023-05-25T14:14:25;22.10;52.80
24402;DHT22;12539;48.808;11.292;2023-05-25T14:16:51;22.10;52.50
24402;DHT22;12539;48.808;11.292;2023-05-25T14:19:16;22.10;52.50
24402;DHT22;12539;48.808;11.292;2023-05-25T14:21:42;22.00;52.40
24402;DHT22;12539;48.808;11.292;2023-05-25T14:24:08;22.10;52.80
24402;DHT22;12539;48.808;11.292;2023-05-25T14:26:34;22.10;53.00
24402;DHT22;12539;48.808;11.292;2023-05-25T14:29:00;22.10;52.40
24402;DHT22;12539;48.808;11.292;2023-05-25T14:31:26;22.10;52.20
24402;DHT22;12539;48.808;11.292;2023-05-25T14:33:51;22.10;52.20
24402;DHT22;12539;48.808;11.292;2023-05-25T14:36:17;22.10;52.20
24402;DHT22;12539;48.808;11.292;2023-05-25T14:38:42;22.10;52.20
24402;DHT22;12539;48.808;11.292;2023-05-25T14:41:08;22.10;52.00
24402;DHT22;12539;48.808;11.292;2023-05-25T14:43:33;22.10;51.90
24402;DHT22;12539;48.808;11.292;2023-05-25T14:46:00;22.10;52.00
24402;DHT22;12539;48.808;11.292;2023-05-25T14:48:26;22.10;52.00
24402;DHT22;12539;48.808;11.292;2023-05-25T14:50:51;22.10;52.00
24402;DHT22;12539;48.808;11.292;2023-05-25T14:53:17;22.10;51.70
24402;DHT22;12539;48.808;11.292;2023-05-25T14:55:43;22.20;51.80
24402;DHT22;12539;48.808;11.292;2023-05-25T14:58:08;22.20;51.70
24402;DHT22;12539;48.808;11.292;2023-05-25T15:00:34;22.20;52.20
24402;DHT22;12539;48.808;11.292;2023-05-25T15:03:00;22.20;51.70
24402;DHT22;12539;48.808;11.292;2023-05-25T15:05:25;22.20;51.70
24402;DHT22;12539;48.808;11.292;2023-05-25T15:07:51;22.10;51.10
24402;DHT22;12539;48.808;11.292;2023-05-25T15:10:16;22.20;51.40
24402;DHT22;12539;48.808;11.292;2023-05-25T15:12:42;22.20;51.20
24402;DHT22;12539;48.808;11.292;2023-05-25T15:15:07;22.20;51.40
24402;DHT22;12539;48.808;11.292;2023-05-25T15:17:33;22.20;51.10
24402;DHT22;12539;48.808;11.292;2023-05-25T15:19:59;22.20;50.60
24402;DHT22;12539;48.808;11.292;2023-05-25T15:22:25;22.20;50.90
24402;DHT22;12539;48.808;11.292;2023-05-25T15:24:51;22.20;51.10
24402;DHT22;12539;48.808;11.292;2023-05-25T15:27:17;22.20;51.10
24402;DHT22;12539;48.808;11.292;2023-05-25T15:29:42;22.20;51.20
24402;DHT22;12539;48.808;11.292;2023-05-25T15:32:08;22.20;50.80
24402;DHT22;12539;48.808;11.292;2023-05-25T15:34:37;22.20;51.00
24402;DHT22;12539;48.808;11.292;2023-05-25T15:37:02;22.20;51.00